Time;durP1;ratioP1;P1;durP2;ratioP2;P2;SDS_P1;SDS_P2;PMS_P1;PMS_P2;Temp;Humidity;BMP_temperature;BMP_pressure;BME280_temperature;BME280_humidity;BME280_pressure;Samples;Min_cycle;Max_cycle;Signal;HPM_P1;HPM_P2
2022/08/30 00:03:15;;;;;;;15.88;5.05;;;;;;;25.19;51.82;99574.78;4988612;28;20084;-85
2022/08/30 00:05:42;;;;;;;15.45;4.85;;;;;;;24.95;52.14;99502.00;4988694;28;20046;-86
2022/08/30 00:08:09;;;;;;;5.75;4.10;;;;;;;24.89;52.41;99517.81;4988501;28;20101;-85
2022/08/30 00:10:40;;;;;;;7.15;4.63;;;;;;;24.86;53.29;99539.63;4988598;28;20492;-85
2022/08/30 00:13:11;;;;;;;6.35;4.47;;;;;;;24.46;55.31;99543.47;4988503;28;20512;-84
2022/08/30 00:15:39;;;;;;;19.85;7.22;;;;;;;24.11;57.13;99533.50;4988645;28;20556;-84
2022/08/30 00:18:06;;;;;;;7.70;5.35;;;;;;;24.24;57.60;99584.66;4987576;28;20166;-85
2022/08/30 00:20:34;;;;;;;10.63;6.90;;;;;;;23.92;58.08;99534.84;4987953;28;20030;-85
2022/08/30 00:23:01;;;;;;;14.82;7.15;;;;;;;24.20;57.87;99542.72;4988137;28;20041;-83
2022/08/30 00:25:27;;;;;;;10.48;6.75;;;;;;;24.12;57.87;99527.97;4987413;28;20424;-85
2022/08/30 00:27:53;;;;;;;12.45;7.72;;;;;;;24.42;57.25;99552.75;4987915;28;20034;-85
2022/08/30 00:30:19;;;;;;;12.18;7.93;;;;;;;24.27;57.35;99549.41;4987904;28;20107;-85
2022/08/30 00:32:46;;;;;;;10.40;6.57;;;;;;;24.84;56.71;99599.94;4988162;28;20046;-84
2022/08/30 00:35:14;;;;;;;10.65;7.95;;;;;;;24.64;56.38;99555.59;4970063;28;20046;-87
2022/08/30 00:37:39;;;;;;;8.73;6.78;;;;;;;24.43;57.06;99541.00;4988122;28;20698;-85
2022/08/30 00:40:07;;;;;;;8.60;5.97;;;;;;;24.04;58.01;99511.53;4988028;28;20045;-85
2022/08/30 00:42:32;;;;;;;10.27;5.32;;;;;;;24.14;57.85;99525.19;4969831;28;20069;-84
2022/08/30 00:44:59;;;;;;;10.18;6.03;;;;;;;24.27;57.70;99538.63;4988119;28;20450;-85
2022/08/30 00:47:24;;;;;;;8.95;4.97;;;;;;;24.46;57.93;99544.31;4986611;28;20421;-84
2022/08/30 00:49:55;;;;;;;8.77;6.10;;;;;;;24.32;57.82;99539.13;4987431;28;20027;-83
2022/08/30 00:52:22;;;;;;;9.38;5.18;;;;;;;24.04;58.18;99513.38;4987365;28;20189;-86
2022/08/30 00:54:50;;;;;;;7.78;5.50;;;;;;;24.38;57.44;99557.53;4969631;28;20038;-86
2022/08/30 00:57:17;;;;;;;8.57;5.55;;;;;;;24.40;57.21;99522.38;4987203;28;20096;-85
2022/08/30 00:59:46;;;;;;;8.73;5.75;;;;;;;24.08;57.58;99552.56;4988171;28;20145;-85
2022/08/30 01:02:13;;;;;;;8.20;5.55;;;;;;;24.20;57.70;99565.13;4987477;28;20105;-85
2022/08/30 01:04:41;;;;;;;9.35;4.93;;;;;;;23.91;57.48;99546.59;4969529;28;20145;-85
2022/08/30 01:07:07;;;;;;;7.72;5.22;;;;;;;23.71;57.34;99523.78;4969954;28;20042;-85
2022/08/30 01:09:34;;;;;;;9.00;5.53;;;;;;;23.69;57.62;99536.47;4987093;28;20535;-86
2022/08/30 01:12:00;;;;;;;8.75;5.18;;;;;;;23.91;57.31;99560.06;4969820;28;20413;-85
2022/08/30 01:14:26;;;;;;;5.35;3.70;;;;;;;23.87;56.93;99517.31;4987128;28;20043;-85
2022/08/30 01:16:55;;;;;;;8.35;4.72;;;;;;;23.83;57.17;99534.63;4987495;28;20031;-86
2022/08/30 01:19:33;;;;;;;7.10;4.32;;;;;;;24.23;57.07;99591.00;4986593;28;20141;-86
2022/08/30 01:22:17;;;;;;;7.15;4.50;;;;;;;23.98;56.80;99514.69;4987205;28;20098;-86
2022/08/30 01:24:46;;;;;;;6.97;4.95;;;;;;;23.97;57.33;99549.81;4985964;28;20078;-85
2022/08/30 01:27:14;;;;;;;6.70;4.93;;;;;;;23.74;57.09;99520.88;4970172;28;20043;-85
2022/08/30 01:29:43;;;;;;;9.60;6.85;;;;;;;23.64;57.31;99517.09;5002035;28;20041;-85
2022/08/30 01:32:17;;;;;;;8.32;6.03;;;;;;;23.84;57.75;99541.75;4987188;28;20082;-85
2022/08/30 01:34:47;;;;;;;13.93;5.78;;;;;;;23.78;56.69;99540.34;4970067;28;20050;-85
2022/08/30 01:37:16;;;;;;;12.07;6.05;;;;;;;23.90;56.79;99526.03;4987262;28;20070;-85
2022/08/30 01:39:45;;;;;;;8.20;5.20;;;;;;;23.90;57.40;99549.41;4987025;28;20100;-85
2022/08/30 01:42:11;;;;;;;7.05;5.82;;;;;;;23.81;58.05;99526.66;4987209;28;20035;-86
2022/08/30 01:44:37;;;;;;;8.13;4.60;;;;;;;23.95;57.95;99544.53;5002277;28;20030;-85
2022/08/30 01:47:03;;;;;;;6.38;4.93;;;;;;;24.18;56.81;99533.91;4987168;28;20030;-85
2022/08/30 01:49:29;;;;;;;12.80;6.10;;;;;;;23.92;57.73;99505.22;4986765;28;20042;-85
2022/08/30 01:51:55;;;;;;;10.80;5.60;;;;;;;24.05;57.35;99504.31;4987432;28;20065;-85
2022/08/30 01:54:21;;;;;;;6.45;4.88;;;;;;;23.96;57.89;99516.63;4986794;28;20448;-86
2022/08/30 01:56:46;;;;;;;9.70;6.60;;;;;;;24.44;57.02;99577.78;4987658;28;20034;-85
2022/08/30 01:59:12;;;;;;;11.05;6.40;;;;;;;24.03;57.37;99493.66;4986555;28;20076;-86
2022/08/30 02:01:38;;;;;;;10.70;6.80;;;;;;;24.47;57.47;99567.63;4989294;28;20565;-86
2022/08/30 02:04:05;;;;;;;11.20;5.88;;;;;;;24.04;57.88;99503.47;4990402;28;20054;-86
2022/08/30 02:06:31;;;;;;;8.15;5.05;;;;;;;24.08;57.74;99518.44;4991296;28;20642;-86
2022/08/30 02:08:57;;;;;;;11.32;5.72;;;;;;;24.02;57.80;99501.84;4989460;28;20042;-86
2022/08/30 02:11:23;;;;;;;8.65;5.45;;;;;;;23.96;57.89;99540.88;4990029;28;20042;-86
2022/08/30 02:13:48;;;;;;;9.00;6.03;;;;;;;23.98;58.95;99555.09;4990395;28;20113;-86
2022/08/30 02:16:18;;;;;;;13.75;5.85;;;;;;;23.57;59.67;99535.53;4990637;28;20031;-85
2022/08/30 02:18:44;;;;;;;8.40;6.95;;;;;;;23.64;58.80;99514.41;4990270;28;20578;-86
2022/08/30 02:21:11;;;;;;;9.40;6.75;;;;;;;23.75;58.98;99513.63;4990519;28;20035;-85
2022/08/30 02:23:37;;;;;;;15.10;7.78;;;;;;;23.98;58.79;99541.63;4973021;28;20035;-85
2022/08/30 02:26:03;;;;;;;11.27;8.15;;;;;;;23.66;58.70;99482.84;4989820;28;20050;-86
2022/08/30 02:28:29;;;;;;;11.10;7.10;;;;;;;23.78;58.56;99543.03;4990062;28;20038;-85
2022/08/30 02:30:56;;;;;;;9.57;6.13;;;;;;;23.49;58.00;99531.66;4989958;28;20038;-87
2022/08/30 02:33:22;;;;;;;13.52;6.43;;;;;;;23.47;58.16;99536.31;4990167;28;20048;-86
2022/08/30 02:35:48;;;;;;;13.23;6.32;;;;;;;23.43;58.22;99522.19;4990080;28;20038;-86
2022/08/30 02:38:14;;;;;;;11.75;7.10;;;;;;;23.77;57.77;99585.28;4990029;28;20113;-85
2022/08/30 02:40:39;;;;;;;11.73;6.70;;;;;;;23.49;56.98;99524.44;5004701;28;20037;-86
2022/08/30 02:43:06;;;;;;;12.95;7.07;;;;;;;23.59;56.88;99536.28;4990053;28;20049;-86
2022/08/30 02:45:31;;;;;;;9.68;5.93;;;;;;;23.71;56.70;99552.53;4990168;28;20081;-86
2022/08/30 02:47:57;;;;;;;8.07;6.07;;;;;;;23.56;56.63;99535.66;4989645;28;20065;-85
2022/08/30 02:50:24;;;;;;;10.77;6.63;;;;;;;23.42;56.49;99524.03;4990338;28;20133;-86
2022/08/30 02:52:49;;;;;;;11.73;6.60;;;;;;;23.54;56.25;99519.63;4990117;28;20495;-86
2022/08/30 02:55:17;;;;;;;7.30;5.13;;;;;;;23.34;56.56;99521.03;4972544;28;20034;-85
2022/08/30 02:57:43;;;;;;;9.15;6.45;;;;;;;23.49;56.35;99520.91;5004345;28;20188;-86
2022/08/30 03:00:12;;;;;;;10.63;6.22;;;;;;;23.69;56.50;99565.25;4989403;28;20038;-85
2022/08/30 03:02:39;;;;;;;7.05;5.00;;;;;;;23.78;55.80;99537.66;4990152;28;20041;-86
2022/08/30 03:05:11;;;;;;;8.68;5.82;;;;;;;23.89;56.13;99571.91;4989795;28;20054;-87
2022/08/30 03:07:37;;;;;;;8.18;5.90;;;;;;;23.71;55.86;99553.41;4989465;28;20034;-86
2022/08/30 03:10:03;;;;;;;9.38;6.28;;;;;;;23.57;56.51;99549.00;4989649;28;20030;-85
2022/08/30 03:12:31;;;;;;;10.68;6.38;;;;;;;23.37;56.41;99536.97;4988370;28;20088;-86
2022/08/30 03:14:57;;;;;;;7.90;5.82;;;;;;;23.45;56.47;99543.63;4990005;28;20113;-86
2022/08/30 03:17:22;;;;;;;10.48;5.75;;;;;;;23.32;56.26;99517.56;4972094;28;20125;-87
2022/08/30 03:19:50;;;;;;;7.35;5.22;;;;;;;23.44;56.21;99534.69;4989504;28;20035;-86
2022/08/30 03:22:16;;;;;;;7.20;5.22;;;;;;;23.41;56.84;99556.44;4988156;28;20034;-86
2022/08/30 03:24:41;;;;;;;10.93;5.90;;;;;;;23.55;56.91;99585.06;4989032;28;20044;-86
2022/08/30 03:27:07;;;;;;;7.18;5.13;;;;;;;23.12;57.19;99515.44;4987390;28;20122;-86
2022/08/30 03:29:33;;;;;;;18.65;7.15;;;;;;;23.21;57.27;99539.00;4988755;28;20070;-86
2022/08/30 03:31:59;;;;;;;11.85;6.15;;;;;;;23.29;56.88;99536.63;4989558;28;20116;-86
2022/08/30 03:34:25;;;;;;;8.82;5.20;;;;;;;23.57;56.77;99558.91;4989105;28;20034;-86
2022/08/30 03:36:53;;;;;;;6.55;4.00;;;;;;;23.52;56.50;99539.53;4987770;28;20045;-86
2022/08/30 03:39:20;;;;;;;6.90;4.72;;;;;;;23.49;56.49;99521.75;4968538;28;20597;-87
2022/08/30 03:41:46;;;;;;;9.15;4.78;;;;;;;23.46;56.63;99510.34;4983835;28;20547;-86
2022/08/30 03:44:11;;;;;;;8.68;4.47;;;;;;;23.62;56.66;99554.06;4988589;28;20046;-85
2022/08/30 03:46:38;;;;;;;11.70;6.65;;;;;;;23.75;56.93;99576.41;4988671;28;20038;-85
2022/08/30 03:49:19;;;;;;;10.23;6.25;;;;;;;23.69;57.44;99567.94;4989688;28;20042;-96
2022/08/30 03:51:46;;;;;;;7.75;4.65;;;;;;;23.53;57.90;99573.56;4988205;28;20049;-85
2022/08/30 03:54:12;;;;;;;7.18;5.30;;;;;;;23.77;58.03;99630.16;4987825;28;20049;-87
2022/08/30 03:56:38;;;;;;;10.07;6.05;;;;;;;23.36;58.26;99562.16;4988678;28;20445;-87
2022/08/30 03:59:04;;;;;;;9.32;6.50;;;;;;;23.21;59.33;99547.94;4971383;28;20070;-87
2022/08/30 04:01:29;;;;;;;7.90;5.28;;;;;;;23.31;59.75;99577.75;4969114;28;20034;-85
2022/08/30 04:03:55;;;;;;;6.85;5.43;;;;;;;23.41;59.59;99588.72;4987773;28;20069;-84
2022/08/30 04:06:21;;;;;;;10.73;5.45;;;;;;;23.38;59.28;99575.50;4987254;28;20064;-86
2022/08/30 04:08:47;;;;;;;9.40;5.55;;;;;;;23.32;58.86;99574.09;4987756;28;20426;-85
2022/08/30 04:11:16;;;;;;;10.68;6.93;;;;;;;23.51;58.64;99607.78;4988597;28;20045;-85
2022/08/30 04:13:43;;;;;;;7.63;5.20;;;;;;;23.01;59.22;99556.50;4988624;28;20034;-85
2022/08/30 04:16:09;;;;;;;8.68;5.10;;;;;;;22.94;60.22;99580.28;4970781;28;20088;-84
2022/08/30 04:18:35;;;;;;;8.80;5.05;;;;;;;23.01;60.59;99594.16;4988435;28;20053;-86
2022/08/30 04:21:01;;;;;;;13.02;5.47;;;;;;;23.17;59.64;99600.25;4987579;28;20030;-87
2022/08/30 04:23:27;;;;;;;11.93;6.28;;;;;;;23.14;60.41;99596.88;4970488;28;20414;-86
2022/08/30 04:25:58;;;;;;;8.65;5.72;;;;;;;23.14;59.68;99573.56;5003014;28;20033;-86
2022/08/30 04:28:24;;;;;;;10.50;6.05;;;;;;;23.12;59.83;99574.63;4988154;28;20038;-86
2022/08/30 04:30:53;;;;;;;7.80;5.22;;;;;;;23.21;59.46;99564.06;4970347;28;20058;-87
2022/08/30 04:33:18;;;;;;;8.05;5.40;;;;;;;23.30;59.36;99567.97;4987518;28;20038;-87
2022/08/30 04:35:47;;;;;;;7.85;5.35;;;;;;;23.47;59.43;99596.38;4988075;28;20049;-85
2022/08/30 04:38:14;;;;;;;12.18;5.20;;;;;;;23.34;59.61;99573.97;4970072;28;20042;-87
2022/08/30 04:40:46;;;;;;;9.70;5.43;;;;;;;23.51;59.80;99594.31;4987287;28;20030;-88
2022/08/30 04:43:12;;;;;;;7.95;5.75;;;;;;;23.61;59.30;99581.94;4970567;28;20057;-88
2022/08/30 04:45:39;;;;;;;9.70;5.13;;;;;;;23.83;58.40;99600.13;4987883;28;20030;-88
2022/08/30 04:48:05;;;;;;;7.65;4.90;;;;;;;23.73;58.50;99564.91;4970265;28;20085;-88
2022/08/30 04:50:31;;;;;;;6.93;5.57;;;;;;;23.94;57.81;99577.81;4970933;28;20117;-87
2022/08/30 04:52:58;;;;;;;11.60;5.38;;;;;;;24.27;57.69;99601.44;4970651;28;20449;-93
2022/08/30 04:55:25;;;;;;;6.03;4.38;;;;;;;24.23;56.92;99578.38;4988793;28;20034;-87
2022/08/30 04:57:51;;;;;;;7.75;5.05;;;;;;;24.53;55.99;99589.69;4986845;28;20038;-87
2022/08/30 05:00:21;;;;;;;6.28;4.35;;;;;;;24.20;56.39;99602.88;4987772;28;20038;-87
2022/08/30 05:02:47;;;;;;;9.00;6.15;;;;;;;24.40;55.83;99596.00;4987426;28;20045;-85
2022/08/30 05:07:58;;;;;;;7.93;4.47;;;;;;;24.75;55.78;99651.03;4988168;28;20049;-89
2022/08/30 05:10:26;;;;;;;12.55;5.95;;;;;;;24.48;55.66;99625.97;4986868;28;20433;-87
2022/08/30 05:12:52;;;;;;;27.17;7.60;;;;;;;24.67;56.04;99616.53;4986390;28;20527;-86
2022/08/30 05:15:18;;;;;;;19.35;7.88;;;;;;;25.14;55.20;99667.88;4986152;28;20034;-85
2022/08/30 05:17:43;;;;;;;26.25;7.43;;;;;;;24.67;55.05;99613.84;4987667;28;20038;-86
2022/08/30 05:20:11;;;;;;;13.43;7.20;;;;;;;24.91;54.74;99604.88;4987435;28;20030;-85
2022/08/30 05:22:39;;;;;;;21.58;5.80;;;;;;;24.57;54.14;99583.13;4970172;28;20485;-85
2022/08/30 05:25:06;;;;;;;7.82;5.80;;;;;;;24.74;54.24;99589.97;4987159;28;20030;-85
2022/08/30 05:27:32;;;;;;;6.55;5.05;;;;;;;24.59;55.22;99616.22;5001114;28;20160;-84
2022/08/30 05:29:57;;;;;;;6.15;3.95;;;;;;;24.71;54.85;99615.31;5002326;28;20520;-85
2022/08/30 05:32:24;;;;;;;6.85;4.25;;;;;;;25.09;54.23;99632.28;4969922;28;20030;-84
2022/08/30 05:34:49;;;;;;;7.07;4.68;;;;;;;24.76;54.08;99559.22;4987042;28;20035;-83
2022/08/30 05:37:15;;;;;;;5.15;3.72;;;;;;;24.58;54.28;99560.63;4990559;28;20132;-84
2022/08/30 05:39:40;;;;;;;7.80;5.03;;;;;;;25.10;53.89;99596.22;4988949;28;20130;-86
2022/08/30 05:42:06;;;;;;;8.07;4.95;;;;;;;25.10;54.57;99628.59;4991330;28;20096;-86
2022/08/30 05:44:32;;;;;;;5.80;3.80;;;;;;;25.57;54.36;99656.50;4992077;28;20092;-85
2022/08/30 05:46:57;;;;;;;9.15;5.45;;;;;;;25.20;54.43;99583.75;4993873;28;20524;-87
2022/08/30 05:49:23;;;;;;;6.50;4.22;;;;;;;25.61;53.63;99625.56;4991234;28;20046;-85
2022/08/30 05:51:48;;;;;;;12.60;4.50;;;;;;;25.68;53.22;99594.38;4989137;28;20034;-86
2022/08/30 05:54:15;;;;;;;7.15;5.00;;;;;;;25.81;52.41;99564.56;4991594;28;20041;-85
2022/08/30 05:56:44;;;;;;;8.07;5.65;;;;;;;25.89;50.99;99589.09;4991505;28;20416;-86
2022/08/30 05:59:10;;;;;;;9.07;5.20;;;;;;;25.88;50.26;99579.25;4991326;28;20034;-85
2022/08/30 06:01:38;;;;;;;5.65;3.47;;;;;;;25.94;49.74;99606.78;4991526;28;20045;-87
2022/08/30 06:04:07;;;;;;;11.23;6.43;;;;;;;26.03;48.81;99566.41;4973063;28;20432;-86
2022/08/30 06:06:35;;;;;;;7.93;5.32;;;;;;;26.43;48.98;99605.50;4973781;28;20034;-87
2022/08/30 06:09:03;;;;;;;6.95;4.35;;;;;;;26.55;48.27;99617.16;4992234;28;20034;-88
2022/08/30 06:11:29;;;;;;;5.25;3.60;;;;;;;26.43;47.96;99575.75;4973302;28;20668;-88
2022/08/30 06:13:54;;;;;;;5.72;3.97;;;;;;;26.40;46.88;99566.06;4974092;28;20037;-87
2022/08/30 06:16:23;;;;;;;6.85;3.65;;;;;;;26.84;46.88;99611.19;4991316;28;20045;-88
2022/08/30 06:18:49;;;;;;;6.72;4.35;;;;;;;26.96;47.10;99592.06;4991008;28;20125;-87
2022/08/30 06:21:20;;;;;;;6.07;3.75;;;;;;;27.16;46.43;99570.56;4991041;28;20045;-87
2022/08/30 06:23:46;;;;;;;5.68;3.72;;;;;;;27.18;46.93;99583.94;4989810;28;20054;-87
2022/08/30 06:26:12;;;;;;;4.82;3.60;;;;;;;27.14;46.09;99599.59;4990932;28;20038;-87
2022/08/30 06:28:38;;;;;;;6.18;4.63;;;;;;;27.33;45.96;99590.78;4973347;28;20093;-85
2022/08/30 06:31:09;;;;;;;8.35;4.90;;;;;;;27.44;46.15;99630.47;4990533;28;20065;-88
2022/08/30 06:33:35;;;;;;;6.55;3.72;;;;;;;27.37;46.01;99615.72;4990554;28;20042;-87
2022/08/30 06:36:09;;;;;;;5.70;3.88;;;;;;;27.62;45.76;99606.31;4990767;28;20030;-85
2022/08/30 06:38:35;;;;;;;6.80;4.30;;;;;;;28.11;46.07;99669.78;4990191;28;20042;-86
2022/08/30 06:41:09;;;;;;;5.63;4.07;;;;;;;27.96;44.25;99628.63;4990328;28;20038;-87
2022/08/30 06:43:34;;;;;;;6.28;3.42;;;;;;;28.00;44.05;99592.09;4990241;28;20038;-87
2022/08/30 06:46:05;;;;;;;9.18;4.00;;;;;;;28.66;44.86;99666.69;4990810;28;20105;-86
2022/08/30 06:48:31;;;;;;;5.35;4.13;;;;;;;28.36;44.93;99592.50;4989279;28;20092;-87
2022/08/30 06:50:58;;;;;;;4.38;3.90;;;;;;;28.71;42.77;99639.13;4990486;28;20527;-88
2022/08/30 06:53:24;;;;;;;6.55;4.53;;;;;;;28.32;44.48;99607.34;4990365;28;20046;-86
2022/08/30 06:56:11;;;;;;;10.82;6.00;;;;;;;28.74;44.28;99601.69;4990338;28;20039;-85
2022/08/30 06:58:39;;;;;;;5.43;3.58;;;;;;;28.67;43.75;99637.69;4990061;28;20042;-85
2022/08/30 07:01:06;;;;;;;5.65;3.50;;;;;;;28.61;44.54;99606.56;4990077;28;20038;-87
2022/08/30 07:03:34;;;;;;;14.18;3.70;;;;;;;29.22;42.41;99634.44;4972457;28;20022;-85
2022/08/30 07:05:59;;;;;;;5.88;3.90;;;;;;;29.19;43.00;99618.41;4990168;28;20049;-84
2022/08/30 07:08:26;;;;;;;5.20;3.78;;;;;;;29.17;42.35;99669.31;4989778;28;20042;-84
2022/08/30 07:10:55;;;;;;;5.43;4.28;;;;;;;28.83;42.27;99566.59;4989853;28;20031;-86
2022/08/30 07:13:22;;;;;;;8.02;3.50;;;;;;;29.32;41.67;99609.97;4989226;28;20026;-85
2022/08/30 07:15:49;;;;;;;7.75;4.22;;;;;;;29.69;41.70;99615.47;4989960;28;20045;-86
2022/08/30 07:21:05;;;;;;;5.80;3.67;;;;;;;29.45;40.15;99569.78;4989484;28;20041;-85
2022/08/30 07:23:31;;;;;;;7.13;3.97;;;;;;;29.55;40.76;99569.75;4989619;28;20104;-85
2022/08/30 07:25:57;;;;;;;6.18;3.70;;;;;;;29.83;40.08;99611.47;4989451;28;20030;-85
2022/08/30 07:28:22;;;;;;;6.03;3.78;;;;;;;30.15;40.17;99638.22;4989449;28;20123;-86
2022/08/30 07:30:48;;;;;;;7.03;2.72;;;;;;;30.23;40.14;99617.56;4988910;28;20118;-85
2022/08/30 07:33:13;;;;;;;5.68;3.28;;;;;;;30.75;37.77;99614.25;4989534;28;22005;-88
2022/08/30 07:35:39;;;;;;;6.03;3.83;;;;;;;30.75;37.14;99625.97;4989676;28;20027;-86
2022/08/30 07:38:04;;;;;;;5.38;3.20;;;;;;;30.85;37.46;99612.31;4989361;28;20030;-85
2022/08/30 07:40:30;;;;;;;6.10;3.53;;;;;;;30.52;38.35;99595.63;4989006;28;20037;-85
2022/08/30 07:42:55;;;;;;;6.75;3.72;;;;;;;30.58;38.02;99580.56;4989354;28;20070;-84
2022/08/30 07:45:21;;;;;;;7.05;3.95;;;;;;;30.89;37.73;99619.13;4988721;28;20030;-85
2022/08/30 07:47:47;;;;;;;4.80;3.15;;;;;;;31.16;37.10;99592.84;4989605;28;20081;-85
2022/08/30 07:50:12;;;;;;;4.68;3.33;;;;;;;31.15;36.30;99599.31;4989522;28;20124;-84
2022/08/30 07:52:38;;;;;;;7.07;3.55;;;;;;;31.09;37.94;99622.56;4989017;28;20131;-84
2022/08/30 07:55:05;;;;;;;8.95;6.00;;;;;;;30.66;36.15;99596.97;4971281;28;20030;-85
2022/08/30 07:57:33;;;;;;;11.32;3.42;;;;;;;31.24;38.63;99661.88;4988769;28;20081;-85
2022/08/30 07:59:59;;;;;;;5.28;3.40;;;;;;;31.39;36.95;99609.53;4970567;28;20039;-85
2022/08/30 08:02:25;;;;;;;4.40;3.30;;;;;;;31.69;36.68;99612.81;4988404;28;20026;-85
2022/08/30 08:04:50;;;;;;;5.20;3.35;;;;;;;31.67;34.65;99585.72;4989029;28;20055;-84
2022/08/30 08:07:16;;;;;;;3.95;3.20;;;;;;;31.71;34.88;99627.97;4988614;28;20094;-85
2022/08/30 08:09:42;;;;;;;6.25;3.40;;;;;;;31.56;35.34;99586.84;4989266;28;20044;-85
2022/08/30 08:12:08;;;;;;;3.53;2.80;;;;;;;31.71;36.16;99627.13;4988918;28;20034;-85
2022/08/30 08:14:34;;;;;;;7.97;3.90;;;;;;;32.07;36.38;99635.16;4988612;28;20030;-85
2022/08/30 08:17:01;;;;;;;4.55;3.03;;;;;;;32.12;34.82;99641.03;4988457;28;20034;-85
2022/08/30 08:19:26;;;;;;;4.20;2.85;;;;;;;31.59;34.72;99597.44;4988682;28;20038;-85
2022/08/30 08:21:58;;;;;;;6.30;3.63;;;;;;;31.80;33.64;99628.91;4988843;28;20402;-85
2022/08/30 08:24:27;;;;;;;8.50;3.53;;;;;;;32.03;35.27;99631.06;4988291;28;20061;-86
2022/08/30 08:26:53;;;;;;;4.72;3.20;;;;;;;31.92;33.88;99629.47;4970636;28;20491;-85
2022/08/30 08:29:19;;;;;;;7.15;4.20;;;;;;;32.25;33.85;99569.63;4988455;28;20173;-85
2022/08/30 08:31:45;;;;;;;5.72;3.45;;;;;;;32.18;34.04;99593.13;4988413;28;20050;-85
2022/08/30 08:34:11;;;;;;;6.20;3.28;;;;;;;32.64;33.96;99610.88;4988581;28;20027;-87
2022/08/30 08:36:40;;;;;;;6.10;3.75;;;;;;;32.83;32.69;99633.41;4988310;28;20035;-87
2022/08/30 08:39:08;;;;;;;5.25;2.67;;;;;;;33.37;33.10;99611.09;4969920;28;20460;-86
2022/08/30 08:42:02;;;;;;;5.90;3.20;;;;;;;33.17;34.21;99646.91;4970399;28;20034;-85
2022/08/30 08:44:44;;;;;;;6.03;3.60;;;;;;;33.71;33.09;99637.34;4970684;28;20039;-85
2022/08/30 08:47:12;;;;;;;5.63;3.10;;;;;;;33.14;33.09;99646.41;4988300;28;20443;-84
2022/08/30 08:49:41;;;;;;;5.35;3.05;;;;;;;32.96;31.66;99570.09;4988167;28;20062;-85
2022/08/30 08:55:06;;;;;;;5.47;3.47;;;;;;;32.53;33.25;99567.44;4988208;28;20147;-86
2022/08/30 08:57:35;;;;;;;11.27;4.38;;;;;;;32.84;33.03;99591.41;4987653;28;20035;-86
2022/08/30 09:00:03;;;;;;;4.88;3.15;;;;;;;32.57;31.99;99581.63;4987997;28;20048;-85
2022/08/30 09:02:40;;;;;;;6.53;3.67;;;;;;;32.46;32.00;99561.81;4987840;28;20556;-87
2022/08/30 09:05:08;;;;;;;4.60;3.20;;;;;;;33.06;32.83;99617.22;4986511;28;20054;-87
2022/08/30 09:07:41;;;;;;;5.60;3.13;;;;;;;33.04;31.71;99582.88;4987665;28;20046;-89
2022/08/30 09:10:07;;;;;;;3.38;2.65;;;;;;;33.19;33.19;99597.59;4984064;28;20109;-87
2022/08/30 09:12:33;;;;;;;4.35;3.35;;;;;;;33.45;31.07;99607.47;4988092;28;20169;-88
2022/08/30 09:15:10;;;;;;;4.18;2.85;;;;;;;33.58;31.97;99632.38;4987697;28;20806;-87
2022/08/30 09:17:58;;;;;;;6.07;4.25;;;;;;;32.72;32.99;99590.03;4987612;28;20030;-91
2022/08/30 09:20:26;;;;;;;5.20;3.50;;;;;;;32.74;32.18;99605.22;4986335;28;20501;-89
2022/08/30 09:22:52;;;;;;;4.25;2.83;;;;;;;32.84;31.21;99600.47;4978493;28;20077;-90
2022/08/30 09:25:25;;;;;;;4.60;3.25;;;;;;;32.68;31.44;99570.41;4983949;28;20102;-89
2022/08/30 09:27:52;;;;;;;7.68;3.95;;;;;;;32.97;31.51;99575.38;4964151;28;20128;-89
2022/08/30 09:30:26;;;;;;;6.03;4.25;;;;;;;32.91;32.12;99569.75;4977145;28;20030;-89
2022/08/30 09:32:55;;;;;;;6.53;4.15;;;;;;;32.85;32.84;99565.81;4987328;28;20026;-89
2022/08/30 09:35:33;;;;;;;5.30;3.65;;;;;;;32.96;33.07;99565.47;4969953;28;20041;-89
2022/08/30 09:38:10;;;;;;;5.35;3.20;;;;;;;33.15;31.45;99616.19;4985474;28;20034;-87
2022/08/30 09:40:48;;;;;;;6.03;3.50;;;;;;;32.42;32.27;99559.59;4986101;28;20042;-88
2022/08/30 09:43:16;;;;;;;6.65;4.15;;;;;;;32.98;32.51;99618.06;4986280;28;20027;-89
2022/08/30 09:46:03;;;;;;;7.05;4.00;;;;;;;32.37;32.74;99532.81;4987014;28;20074;-89
2022/08/30 09:48:39;;;;;;;6.00;4.68;;;;;;;33.14;31.49;99564.44;4986665;28;20117;-88
2022/08/30 09:51:08;;;;;;;4.57;2.92;;;;;;;33.50;30.99;99599.59;4986554;28;20030;-89
2022/08/30 09:53:38;;;;;;;7.20;5.15;;;;;;;32.97;31.35;99518.00;4986123;28;20030;-88
2022/08/30 09:56:29;;;;;;;14.02;5.65;;;;;;;33.14;30.35;99539.88;4985359;28;20030;-88
2022/08/30 09:59:08;;;;;;;7.70;3.50;;;;;;;33.24;31.23;99567.88;4985955;28;20046;-87
2022/08/30 10:01:45;;;;;;;5.85;4.10;;;;;;;33.12;30.84;99559.16;4985415;28;20043;-87
2022/08/30 10:04:36;;;;;;;5.57;3.25;;;;;;;33.44;30.44;99598.41;4986614;28;20501;-87
2022/08/30 10:07:30;;;;;;;6.30;4.43;;;;;;;33.58;29.43;99555.00;4977918;28;20073;-87
2022/08/30 10:10:11;;;;;;;3.92;2.63;;;;;;;33.49;29.65;99554.16;4978256;28;20046;-89
2022/08/30 10:12:56;;;;;;;6.20;2.92;;;;;;;33.44;30.03;99557.41;4987767;28;20069;-89
2022/08/30 10:15:37;;;;;;;4.55;2.90;;;;;;;33.20;29.77;99525.53;4986925;28;20030;-89
2022/08/30 10:18:12;;;;;;;7.85;2.88;;;;;;;33.81;29.45;99577.00;4987710;28;20105;-88
2022/08/30 10:20:55;;;;;;;7.25;4.00;;;;;;;33.79;29.92;99579.91;4987603;28;20049;-88
2022/08/30 10:23:31;;;;;;;5.53;2.83;;;;;;;33.47;30.28;99526.16;4990363;28;20039;-90
2022/08/30 10:26:16;;;;;;;8.15;4.80;;;;;;;33.23;29.85;99525.19;4990330;28;20273;-88
2022/08/30 10:28:54;;;;;;;6.03;3.83;;;;;;;33.60;29.96;99553.78;4991092;28;20037;-89
2022/08/30 10:31:42;;;;;;;3.80;2.63;;;;;;;33.52;31.19;99519.13;4990905;28;20068;-89
2022/08/30 10:34:15;;;;;;;4.60;2.97;;;;;;;33.60;30.23;99541.97;4990141;28;20493;-87
2022/08/30 10:36:51;;;;;;;4.90;3.38;;;;;;;33.88;32.10;99576.09;4989001;28;20428;-89
2022/08/30 10:39:27;;;;;;;5.15;3.08;;;;;;;33.57;30.29;99498.59;4991083;28;20509;-88
2022/08/30 10:42:02;;;;;;;9.23;4.03;;;;;;;33.91;28.98;99528.41;4990981;28;20031;-90
2022/08/30 10:44:36;;;;;;;4.05;2.65;;;;;;;33.49;30.55;99524.06;4988767;28;20121;-88
2022/08/30 10:47:25;;;;;;;9.33;4.83;;;;;;;33.33;31.94;99547.69;4990101;28;20100;-90
2022/08/30 10:50:00;;;;;;;5.40;3.40;;;;;;;33.05;31.65;99491.72;4990692;28;20042;-87
2022/08/30 10:52:34;;;;;;;5.28;3.22;;;;;;;33.46;32.42;99551.75;4989938;28;20076;-88
2022/08/30 10:55:12;;;;;;;5.45;3.05;;;;;;;33.69;30.98;99541.81;4972722;28;20125;-88
2022/08/30 10:57:38;;;;;;;7.82;4.57;;;;;;;33.26;31.88;99488.44;4990289;28;20140;-88
2022/08/30 11:00:21;;;;;;;3.90;2.75;;;;;;;33.09;30.13;99471.19;5005297;28;20492;-87
2022/08/30 11:03:08;;;;;;;5.70;2.85;;;;;;;33.67;30.12;99534.78;4990344;28;20104;-88
2022/08/30 11:05:34;;;;;;;4.63;2.60;;;;;;;33.56;30.59;99536.03;4989818;28;20067;-88
2022/08/30 11:08:24;;;;;;;5.60;2.92;;;;;;;33.51;30.17;99539.28;4989918;28;20038;-86
2022/08/30 11:11:10;;;;;;;3.88;2.83;;;;;;;33.18;29.73;99494.75;4990307;28;20034;-87
2022/08/30 11:13:39;;;;;;;6.32;2.88;;;;;;;33.16;29.73;99475.78;4990072;28;20382;-87
2022/08/30 11:16:08;;;;;;;5.78;2.88;;;;;;;33.38;30.40;99487.03;4989514;28;20453;-87
2022/08/30 11:18:44;;;;;;;6.28;2.78;;;;;;;33.62;29.27;99469.69;4989508;28;20038;-90
2022/08/30 11:21:31;;;;;;;3.83;2.50;;;;;;;33.92;29.03;99504.63;4989010;28;20120;-90
2022/08/30 11:24:11;;;;;;;6.18;3.58;;;;;;;33.96;30.59;99523.25;4972508;28;20046;-89
2022/08/30 11:26:47;;;;;;;7.95;3.55;;;;;;;34.21;30.58;99513.00;4989861;28;20041;-87
2022/08/30 11:29:33;;;;;;;7.80;3.10;;;;;;;34.14;28.20;99517.50;4989768;28;20026;-87
2022/08/30 11:32:11;;;;;;;6.15;2.97;;;;;;;34.42;29.19;99512.38;4989508;28;20540;-88
2022/08/30 11:34:46;;;;;;;5.35;3.25;;;;;;;33.92;29.24;99513.69;4989253;28;20031;-88
2022/08/30 11:37:40;;;;;;;3.30;2.45;;;;;;;34.08;29.44;99502.66;4989849;28;20022;-88
2022/08/30 11:40:08;;;;;;;3.67;2.10;;;;;;;34.05;29.64;99503.00;4989325;28;20093;-88
2022/08/30 11:42:41;;;;;;;3.97;2.38;;;;;;;34.19;28.95;99437.59;4989549;28;20397;-88
2022/08/30 11:45:21;;;;;;;4.30;2.40;;;;;;;34.25;27.77;99505.34;4987872;28;20101;-88
2022/08/30 11:47:53;;;;;;;3.95;2.63;;;;;;;33.92;29.21;99497.28;4972134;28;20072;-86
2022/08/30 11:50:30;;;;;;;17.13;5.63;;;;;;;33.82;29.30;99488.44;4989297;28;20030;-89
2022/08/30 11:53:08;;;;;;;5.05;3.15;;;;;;;34.09;28.37;99487.09;4971605;28;20493;-88